createdAt,value
2018-02-13T00:01:31.920Z,83.17
2018-02-13T00:03:59.416Z,81.09
2018-02-13T00:06:26.860Z,80.70
2018-02-13T00:08:54.298Z,81.97
2018-02-13T00:11:21.941Z,82.67
2018-02-13T00:13:49.391Z,83.49
2018-02-13T00:16:16.832Z,83.49
2018-02-13T00:18:44.448Z,82.77
2018-02-13T00:21:11.888Z,83.12
2018-02-13T00:23:39.341Z,83.47
2018-02-13T00:26:06.817Z,83.86
2018-02-13T00:28:34.253Z,83.60
2018-02-13T00:31:01.842Z,84.49
2018-02-13T00:33:29.306Z,84.56
2018-02-13T00:35:56.768Z,84.42
2018-02-13T00:38:24.210Z,84.46
2018-02-13T00:40:51.676Z,84.20
2018-02-13T00:43:19.113Z,83.92
2018-02-13T00:45:46.548Z,83.62
2018-02-13T00:48:14.396Z,84.22
2018-02-13T00:50:41.841Z,84.26
2018-02-13T00:53:09.286Z,83.99
2018-02-13T00:55:36.789Z,83.61
2018-02-13T00:58:04.337Z,83.74
2018-02-13T01:00:31.814Z,83.79
2018-02-13T01:02:59.253Z,83.42
2018-02-13T01:05:26.694Z,83.63
2018-02-13T01:07:54.155Z,84.01
2018-02-13T01:10:21.593Z,84.67
2018-02-13T01:12:49.296Z,84.82
2018-02-13T01:15:16.740Z,84.52
2018-02-13T01:17:44.182Z,84.15
2018-02-13T01:20:11.656Z,84.07
2018-02-13T01:22:39.146Z,84.63
2018-02-13T01:25:06.855Z,83.91
2018-02-13T01:27:34.381Z,84.01
2018-02-13T01:30:01.833Z,83.51
2018-02-13T01:32:29.292Z,83.56
2018-02-13T01:34:56.733Z,83.09
2018-02-13T01:37:24.360Z,83.27
2018-02-13T01:39:51.804Z,83.02
2018-02-13T01:42:19.274Z,82.77
2018-02-13T01:44:46.756Z,83.85
2018-02-13T01:47:14.214Z,83.75
2018-02-13T01:49:41.712Z,84.05
2018-02-13T01:52:09.178Z,84.00
2018-02-13T01:54:36.616Z,84.10
2018-02-13T01:57:04.077Z,84.41
2018-02-13T01:59:31.516Z,84.18
2018-02-13T02:01:59.013Z,83.91
2018-02-13T02:04:26.460Z,83.78
2018-02-13T02:06:53.896Z,83.34
2018-02-13T02:09:21.384Z,84.47
2018-02-13T02:11:48.820Z,84.03
2018-02-13T02:14:16.318Z,84.29
2018-02-13T02:16:43.766Z,84.10
2018-02-13T02:19:11.225Z,83.83
2018-02-13T02:21:38.684Z,83.71
2018-02-13T02:24:06.125Z,82.95
2018-02-13T02:26:33.897Z,83.47
2018-02-13T02:29:01.352Z,83.32
2018-02-13T02:31:28.796Z,83.22
2018-02-13T02:33:56.263Z,83.47
2018-02-13T02:36:23.700Z,83.91
2018-02-13T02:38:51.349Z,83.53
2018-02-13T02:41:18.785Z,83.34
2018-02-13T02:43:46.224Z,82.73
2018-02-13T02:46:13.680Z,83.16
2018-02-13T02:48:41.133Z,83.14
2018-02-13T02:51:08.701Z,82.67
2018-02-13T02:53:36.166Z,82.77
2018-02-13T02:56:03.604Z,83.21
2018-02-13T02:58:31.080Z,83.49
2018-02-13T03:00:58.530Z,83.21
2018-02-13T03:03:26.104Z,83.71
2018-02-13T03:05:53.553Z,83.48
2018-02-13T03:08:20.988Z,83.65
2018-02-13T03:10:48.474Z,83.77
2018-02-13T03:13:15.916Z,83.20
2018-02-13T03:15:43.420Z,82.94
2018-02-13T03:18:10.858Z,83.39
2018-02-13T03:20:38.305Z,83.62
2018-02-13T03:23:05.788Z,83.86
2018-02-13T03:25:33.228Z,83.23
2018-02-13T03:28:00.957Z,83.60
2018-02-13T03:30:28.413Z,83.87
2018-02-13T03:32:55.856Z,83.59
2018-02-13T03:35:23.328Z,83.56
2018-02-13T03:37:50.768Z,83.06
2018-02-13T03:40:18.256Z,84.05
2018-02-13T03:42:45.696Z,84.31
2018-02-13T03:45:13.146Z,84.20
2018-02-13T03:47:40.637Z,84.19
2018-02-13T03:50:08.078Z,84.25
2018-02-13T03:52:35.744Z,84.71
2018-02-13T03:55:03.274Z,84.84
2018-02-13T03:57:30.732Z,84.54
2018-02-13T03:59:58.193Z,83.88
2018-02-13T04:02:25.662Z,84.25
2018-02-13T04:04:53.293Z,84.86
2018-02-13T04:07:20.752Z,84.97
2018-02-13T04:09:48.196Z,84.63
2018-02-13T04:12:15.657Z,85.14
2018-02-13T04:14:43.097Z,84.21
2018-02-13T04:17:10.753Z,84.36
2018-02-13T04:19:38.194Z,83.97
2018-02-13T04:22:05.645Z,83.68
2018-02-13T04:24:33.128Z,84.39
2018-02-13T04:27:00.570Z,85.25
2018-02-13T04:29:28.057Z,85.59
2018-02-13T04:31:55.522Z,85.63
2018-02-13T04:34:22.991Z,85.60
2018-02-13T04:36:50.449Z,85.56
2018-02-13T04:39:17.904Z,84.93
2018-02-13T04:41:45.605Z,85.38
2018-02-13T04:44:13.041Z,85.33
2018-02-13T04:46:40.492Z,85.48
2018-02-13T04:49:07.948Z,85.03
2018-02-13T04:51:35.408Z,85.12
2018-02-13T04:54:02.885Z,84.94
2018-02-13T04:56:30.345Z,84.46
2018-02-13T04:58:57.781Z,84.86
2018-02-13T05:01:25.254Z,84.89
2018-02-13T05:03:52.696Z,84.28
2018-02-13T05:06:20.355Z,84.14
2018-02-13T05:08:47.817Z,84.77
2018-02-13T05:11:15.260Z,85.20
2018-02-13T05:13:42.716Z,83.63
2018-02-13T05:16:10.154Z,82.70
2018-02-13T05:18:37.641Z,82.93
2018-02-13T05:21:05.079Z,82.94
2018-02-13T05:23:32.520Z,84.04
2018-02-13T05:25:59.984Z,83.98
2018-02-13T05:28:27.438Z,83.50
2018-02-13T05:30:55.148Z,83.89
2018-02-13T05:33:22.589Z,83.86
2018-02-13T05:35:50.046Z,84.10
2018-02-13T05:38:17.508Z,84.37
2018-02-13T05:40:44.948Z,84.03
2018-02-13T05:43:12.597Z,84.35
2018-02-13T05:45:40.033Z,84.96
2018-02-13T05:48:07.468Z,84.89
2018-02-13T05:50:34.945Z,84.81
2018-02-13T05:53:02.384Z,82.54
2018-02-13T05:55:30.078Z,81.05
2018-02-13T05:57:57.544Z,82.86
2018-02-13T06:00:24.988Z,83.33
2018-02-13T06:02:52.468Z,83.81
2018-02-13T06:05:19.912Z,84.25
2018-02-13T06:07:47.501Z,84.06
2018-02-13T06:10:14.965Z,84.56
2018-02-13T06:12:42.409Z,83.96
2018-02-13T06:15:09.876Z,84.56
2018-02-13T06:17:37.312Z,84.52
2018-02-13T06:20:04.800Z,84.51
2018-02-13T06:22:32.253Z,84.25
2018-02-13T06:24:59.695Z,84.46
2018-02-13T06:27:27.156Z,84.51
2018-02-13T06:29:54.613Z,84.70
2018-02-13T06:32:22.288Z,84.45
2018-02-13T06:34:49.730Z,84.15
2018-02-13T06:37:17.181Z,84.27
2018-02-13T06:39:44.679Z,84.04
2018-02-13T06:42:12.116Z,83.59
2018-02-13T06:44:39.768Z,83.99
2018-02-13T06:47:07.204Z,83.41
2018-02-13T06:49:34.654Z,84.07
2018-02-13T06:52:02.120Z,83.86
2018-02-13T06:54:29.574Z,84.00
2018-02-13T06:56:57.188Z,83.62
2018-02-13T06:59:24.624Z,84.15
2018-02-13T07:01:52.082Z,83.96
2018-02-13T07:04:19.544Z,84.09
2018-02-13T07:06:46.984Z,83.64
2018-02-13T07:09:14.456Z,83.35
2018-02-13T07:11:41.913Z,83.57
2018-02-13T07:14:09.356Z,83.65
2018-02-13T07:16:36.824Z,82.78
2018-02-13T07:19:04.272Z,84.00
2018-02-13T07:21:31.736Z,83.49
2018-02-13T07:23:59.181Z,84.45
2018-02-13T07:26:26.652Z,85.44
2018-02-13T07:28:54.128Z,85.12
2018-02-13T07:31:21.564Z,84.96
2018-02-13T07:33:49.140Z,85.18
2018-02-13T07:36:16.580Z,85.38
2018-02-13T07:38:44.036Z,84.51
2018-02-13T07:41:11.501Z,85.32
2018-02-13T07:43:38.941Z,84.94
2018-02-13T07:46:06.596Z,84.58
2018-02-13T07:48:34.042Z,84.12
2018-02-13T07:51:01.489Z,84.66
2018-02-13T07:53:28.960Z,83.99
2018-02-13T07:55:56.417Z,85.39
2018-02-13T07:58:24.140Z,85.80
2018-02-13T08:00:51.581Z,85.88
2018-02-13T08:03:19.026Z,85.06
2018-02-13T08:05:46.488Z,85.02
2018-02-13T08:08:13.932Z,84.67
2018-02-13T08:10:41.412Z,85.02
2018-02-13T08:13:08.853Z,85.00
2018-02-13T08:15:36.312Z,84.91
2018-02-13T08:18:03.797Z,84.41
2018-02-13T08:20:31.257Z,85.14
2018-02-13T08:22:58.732Z,84.18
2018-02-13T08:25:26.185Z,84.64
2018-02-13T08:27:53.629Z,84.18
2018-02-13T08:30:21.108Z,83.94
2018-02-13T08:32:48.554Z,84.16
2018-02-13T08:35:16.188Z,84.65
2018-02-13T08:37:43.628Z,84.33
2018-02-13T08:40:11.077Z,84.05
2018-02-13T08:42:38.587Z,83.81
2018-02-13T08:45:06.028Z,83.29
2018-02-13T08:47:33.632Z,83.58
2018-02-13T08:50:01.089Z,83.65
2018-02-13T08:52:28.545Z,83.50
2018-02-13T08:54:56.008Z,83.93
2018-02-13T08:57:23.470Z,83.80
2018-02-13T08:59:51.084Z,83.99
2018-02-13T09:02:18.541Z,83.70
2018-02-13T09:04:46.025Z,83.01
2018-02-13T09:07:13.492Z,82.77
2018-02-13T09:09:40.949Z,83.27
2018-02-13T09:12:08.421Z,82.12
2018-02-13T09:14:35.856Z,82.03
2018-02-13T09:17:03.292Z,81.14
2018-02-13T09:19:30.765Z,82.60
2018-02-13T09:21:58.204Z,82.30
2018-02-13T09:24:25.869Z,81.50
2018-02-13T09:26:53.311Z,81.07
2018-02-13T09:29:20.761Z,80.77
2018-02-13T09:31:48.225Z,79.22
2018-02-13T09:34:15.671Z,80.32
2018-02-13T09:36:43.172Z,80.53
2018-02-13T09:39:10.625Z,79.60
2018-02-13T09:41:38.069Z,79.50
2018-02-13T09:44:05.559Z,78.44
2018-02-13T09:46:32.992Z,77.76
2018-02-13T09:49:00.676Z,77.48
2018-02-13T09:51:28.130Z,77.33
2018-02-13T09:53:55.586Z,76.30
2018-02-13T09:56:23.105Z,75.87
2018-02-13T09:58:50.528Z,77.07
2018-02-13T10:01:18.133Z,76.65
2018-02-13T10:03:45.690Z,75.42
2018-02-13T10:06:13.185Z,76.27
2018-02-13T10:08:40.653Z,76.57
2018-02-13T10:11:08.104Z,75.89
2018-02-13T10:13:35.681Z,75.61
2018-02-13T10:16:03.117Z,76.61
2018-02-13T10:18:30.813Z,75.29
2018-02-13T10:20:58.268Z,75.12
2018-02-13T10:23:25.785Z,75.34
2018-02-13T10:25:53.623Z,75.01
2018-02-13T10:28:21.069Z,74.54
2018-02-13T10:30:48.521Z,73.31
2018-02-13T10:33:15.980Z,72.45
2018-02-13T10:35:43.423Z,72.71
2018-02-13T10:38:11.004Z,73.74
2018-02-13T10:40:38.442Z,74.24
2018-02-13T10:43:05.885Z,75.45
2018-02-13T10:45:33.356Z,75.11
2018-02-13T10:48:00.829Z,74.97
2018-02-13T10:50:28.540Z,75.56
2018-02-13T10:52:55.976Z,75.99
2018-02-13T10:55:23.408Z,76.08
2018-02-13T10:57:50.860Z,75.35
2018-02-13T11:00:18.296Z,75.12
2018-02-13T11:02:45.763Z,74.88
2018-02-13T11:05:13.285Z,73.68
2018-02-13T11:07:41.069Z,73.80
2018-02-13T11:10:08.504Z,72.89
2018-02-13T11:12:35.945Z,72.39
2018-02-13T11:15:03.419Z,73.24
2018-02-13T11:17:30.862Z,72.93
2018-02-13T11:19:58.684Z,72.43
2018-02-13T11:22:26.125Z,71.55
2018-02-13T11:24:53.573Z,71.39
2018-02-13T11:27:21.050Z,70.49
2018-02-13T11:29:48.521Z,70.68
2018-02-13T11:32:16.166Z,70.05
2018-02-13T11:34:43.690Z,70.38
2018-02-13T11:37:11.113Z,69.63
2018-02-13T11:39:38.580Z,67.92
2018-02-13T11:42:06.100Z,67.68
2018-02-13T11:44:33.738Z,67.25
2018-02-13T11:47:01.165Z,67.75
2018-02-13T11:49:28.648Z,66.09
2018-02-13T11:51:56.123Z,65.54
2018-02-13T11:54:23.561Z,63.82
2018-02-13T11:56:51.446Z,64.32
2018-02-13T11:59:18.873Z,65.63
2018-02-13T12:01:46.311Z,65.19
2018-02-13T12:04:13.777Z,64.94
2018-02-13T12:06:41.216Z,65.58
2018-02-13T12:09:09.056Z,65.93
2018-02-13T12:11:36.496Z,65.33
2018-02-13T12:14:03.959Z,62.84
2018-02-13T12:16:31.423Z,63.45
2018-02-13T12:18:58.864Z,60.05
2018-02-13T12:21:26.359Z,58.95
2018-02-13T12:23:53.796Z,57.14
2018-02-13T12:26:21.260Z,54.73
2018-02-13T12:28:48.720Z,55.34
2018-02-13T12:31:16.154Z,54.06
2018-02-13T12:33:43.612Z,53.31
2018-02-13T12:36:11.052Z,52.86
2018-02-13T12:38:38.496Z,52.77
2018-02-13T12:41:05.973Z,51.54
2018-02-13T12:43:33.404Z,51.30
2018-02-13T12:46:01.033Z,50.12
2018-02-13T12:48:28.485Z,48.71
2018-02-13T12:50:55.925Z,50.10
2018-02-13T12:53:23.396Z,49.31
2018-02-13T12:55:50.829Z,48.92
2018-02-13T12:58:18.518Z,49.26
2018-02-13T13:00:45.968Z,48.67
2018-02-13T13:03:13.412Z,48.66
2018-02-13T13:05:40.869Z,48.64
2018-02-13T13:08:08.300Z,48.79
2018-02-13T13:10:36.041Z,49.75
2018-02-13T13:13:03.496Z,48.91
2018-02-13T13:15:30.938Z,47.88
2018-02-13T13:17:58.402Z,47.97
2018-02-13T13:20:25.848Z,48.67
2018-02-13T13:22:53.485Z,50.63
2018-02-13T13:25:20.925Z,50.45
2018-02-13T13:27:48.376Z,51.16
2018-02-13T13:30:15.828Z,50.08
2018-02-13T13:32:43.260Z,50.35
2018-02-13T13:35:11.051Z,50.17
2018-02-13T13:37:38.496Z,50.36
2018-02-13T13:40:05.937Z,50.90
2018-02-13T13:42:33.397Z,50.17
2018-02-13T13:45:00.836Z,49.33
2018-02-13T13:47:28.489Z,50.12
2018-02-13T13:49:55.933Z,48.98
2018-02-13T13:52:23.413Z,48.42
2018-02-13T13:54:50.902Z,49.02
2018-02-13T13:57:18.336Z,50.03
2018-02-13T13:59:46.134Z,50.34
2018-02-13T14:02:13.569Z,50.05
2018-02-13T14:04:47.501Z,49.29
2018-02-13T14:07:14.961Z,49.38
2018-02-13T14:09:42.396Z,49.35
2018-02-13T14:12:09.853Z,49.31
2018-02-13T14:14:37.305Z,47.88
2018-02-13T14:17:06.752Z,48.05
2018-02-13T14:19:34.192Z,48.30
2018-02-13T14:22:01.634Z,49.19
2018-02-13T14:24:29.113Z,48.55
2018-02-13T14:26:56.565Z,49.15
2018-02-13T14:29:24.180Z,48.86
2018-02-13T14:31:51.617Z,49.38
2018-02-13T14:34:19.070Z,49.39
2018-02-13T14:36:46.531Z,49.38
2018-02-13T14:39:13.970Z,49.58
2018-02-13T14:41:41.637Z,49.75
2018-02-13T14:44:09.074Z,50.28
2018-02-13T14:46:36.526Z,51.26
2018-02-13T14:49:03.996Z,50.36
2018-02-13T14:51:31.436Z,50.40
2018-02-13T14:53:59.096Z,50.61
2018-02-13T14:56:26.532Z,51.12
2018-02-13T14:58:54.000Z,50.70
2018-02-13T15:01:21.485Z,50.91
2018-02-13T15:03:48.927Z,51.48
2018-02-13T15:06:16.416Z,50.94
2018-02-13T15:08:43.871Z,51.06
2018-02-13T15:11:11.327Z,51.24
2018-02-13T15:13:38.796Z,51.81
2018-02-13T15:16:06.261Z,53.00
2018-02-13T15:18:37.190Z,52.91
2018-02-13T15:21:04.609Z,53.08
2018-02-13T15:23:32.193Z,53.39
2018-02-13T15:25:59.629Z,53.71
2018-02-13T15:28:27.078Z,53.46
2018-02-13T15:30:54.556Z,52.32
2018-02-13T15:33:21.996Z,50.73
2018-02-13T15:35:49.772Z,50.83
2018-02-13T15:38:17.234Z,50.05
2018-02-13T15:40:44.691Z,50.05
2018-02-13T15:43:12.152Z,50.40
2018-02-13T15:45:39.598Z,51.00
2018-02-13T15:48:07.068Z,50.75
2018-02-13T15:50:34.537Z,50.84
2018-02-13T15:53:01.988Z,51.00
2018-02-13T15:55:29.455Z,51.33
2018-02-13T15:57:56.892Z,52.16
2018-02-13T16:00:24.328Z,51.74
2018-02-13T16:02:51.789Z,52.14
2018-02-13T16:05:19.261Z,52.36
2018-02-13T16:07:46.713Z,52.91
2018-02-13T16:10:14.176Z,53.87
2018-02-13T16:12:41.617Z,54.01
2018-02-13T16:15:09.053Z,53.80
2018-02-13T16:17:36.530Z,53.77
2018-02-13T16:20:03.981Z,54.44
2018-02-13T16:22:31.432Z,55.13
2018-02-13T16:24:58.915Z,54.97
2018-02-13T16:27:26.360Z,54.72
2018-02-13T16:29:53.808Z,55.02
2018-02-13T16:32:21.441Z,55.03
2018-02-13T16:34:48.878Z,55.59
2018-02-13T16:37:16.313Z,55.98
2018-02-13T16:39:44.062Z,56.18
2018-02-13T16:42:11.496Z,56.26
2018-02-13T16:44:38.938Z,56.00
2018-02-13T16:47:06.425Z,56.45
2018-02-13T16:49:33.860Z,56.74
2018-02-13T16:52:01.336Z,56.52
2018-02-13T16:54:28.781Z,56.81
2018-02-13T16:56:56.252Z,56.97
2018-02-13T16:59:23.728Z,57.69
2018-02-13T17:01:51.166Z,58.74
2018-02-13T17:04:18.850Z,60.22
2018-02-13T17:06:46.317Z,61.35
2018-02-13T17:09:13.748Z,61.60
2018-02-13T17:11:41.232Z,60.96
2018-02-13T17:14:08.689Z,60.78
2018-02-13T17:16:36.168Z,60.25
2018-02-13T17:19:03.618Z,62.83
2018-02-13T17:21:31.056Z,63.42
2018-02-13T17:23:58.528Z,64.87
2018-02-13T17:26:25.985Z,65.21
2018-02-13T17:28:53.436Z,64.99
2018-02-13T17:31:20.882Z,65.33
2018-02-13T17:33:48.600Z,65.41
2018-02-13T17:36:16.056Z,65.58
2018-02-13T17:38:43.611Z,65.93
2018-02-13T17:41:11.093Z,66.30
2018-02-13T17:43:38.583Z,66.78
2018-02-13T17:46:06.244Z,66.98
2018-02-13T17:48:33.688Z,67.59
2018-02-13T17:51:01.134Z,68.00
2018-02-13T17:53:28.616Z,68.27
2018-02-13T17:55:56.073Z,68.32
2018-02-13T17:58:23.793Z,68.40
2018-02-13T18:00:51.229Z,68.99
2018-02-13T18:03:18.677Z,68.72
2018-02-13T18:05:46.173Z,68.68
2018-02-13T18:08:13.637Z,69.08
2018-02-13T18:10:41.401Z,69.13
2018-02-13T18:13:08.852Z,69.38
2018-02-13T18:15:36.292Z,69.72
2018-02-13T18:18:03.784Z,70.03
2018-02-13T18:20:31.257Z,69.61
2018-02-13T18:22:58.925Z,69.47
2018-02-13T18:25:26.364Z,69.61
2018-02-13T18:27:53.812Z,69.31
2018-02-13T18:30:21.337Z,69.80
2018-02-13T18:32:48.785Z,69.98
2018-02-13T18:35:16.464Z,70.49
2018-02-13T18:37:43.916Z,70.33
2018-02-13T18:40:11.365Z,70.30
2018-02-13T18:42:38.917Z,70.41
2018-02-13T18:45:06.367Z,70.63
2018-02-13T18:47:33.932Z,70.79
2018-02-13T18:50:01.384Z,70.93
2018-02-13T18:54:56.304Z,70.90
2018-02-13T18:57:23.761Z,70.62
2018-02-13T18:59:51.347Z,70.41
2018-02-13T19:02:18.875Z,70.50
2018-02-13T19:04:46.324Z,70.46
2018-02-13T19:07:13.786Z,70.54
2018-02-13T19:09:41.256Z,70.34
2018-02-13T19:12:08.905Z,70.47
2018-02-13T19:14:36.342Z,70.49
2018-02-13T19:19:33.162Z,70.63
2018-02-13T19:22:00.602Z,70.73
2018-02-13T19:24:28.193Z,71.04
2018-02-13T19:26:55.649Z,70.92
2018-02-13T19:29:23.096Z,70.69
2018-02-13T19:31:50.570Z,70.11
2018-02-13T19:34:18.019Z,70.00
2018-02-13T19:36:45.846Z,70.22
2018-02-13T19:39:13.349Z,69.69
2018-02-13T19:41:40.812Z,69.77
2018-02-13T19:44:08.280Z,69.94
2018-02-13T19:46:38.761Z,69.64
2018-02-13T19:49:06.241Z,69.74
2018-02-13T19:51:33.697Z,70.12
2018-02-13T19:54:01.146Z,70.18
2018-02-13T19:56:28.605Z,70.42
2018-02-13T19:58:56.049Z,70.76
2018-02-13T20:01:26.557Z,70.30
2018-02-13T20:03:54.007Z,70.41
2018-02-13T20:06:21.733Z,70.67
2018-02-13T20:08:49.593Z,70.24
2018-02-13T20:11:17.745Z,69.83
2018-02-13T20:13:45.365Z,69.77
2018-02-13T20:16:12.824Z,69.48
2018-02-13T20:18:40.317Z,69.75
2018-02-13T20:21:08.349Z,69.57
2018-02-13T20:23:36.273Z,69.71
2018-02-13T20:26:03.749Z,69.72
2018-02-13T20:28:31.821Z,69.83
2018-02-13T20:30:59.266Z,69.89
2018-02-13T20:33:27.673Z,70.05
2018-02-13T20:35:55.990Z,70.01
2018-02-13T20:38:23.447Z,70.37
2018-02-13T20:40:50.885Z,70.96
2018-02-13T20:43:23.214Z,71.26
2018-02-13T20:45:50.692Z,71.08
2018-02-13T20:48:18.175Z,71.75
2018-02-13T20:50:45.649Z,72.16
2018-02-13T20:53:13.094Z,72.41
2018-02-13T20:55:40.560Z,72.53
2018-02-13T20:58:08.045Z,72.51
2018-02-13T21:00:35.516Z,72.92
2018-02-13T21:03:02.954Z,73.39
2018-02-13T21:05:30.405Z,73.82
2018-02-13T21:07:57.865Z,73.77
2018-02-13T21:10:25.340Z,73.20
2018-02-13T21:12:53.269Z,72.76
2018-02-13T21:15:20.724Z,72.08
2018-02-13T21:17:49.655Z,71.64
2018-02-13T21:20:17.137Z,71.76
2018-02-13T21:22:44.581Z,72.23
2018-02-13T21:25:12.049Z,71.48
2018-02-13T21:27:39.513Z,71.87
2018-02-13T21:30:06.957Z,72.35
2018-02-13T21:32:34.420Z,71.63
2018-02-13T21:35:01.861Z,71.21
2018-02-13T21:37:29.570Z,71.28
2018-02-13T21:39:57.009Z,71.79
2018-02-13T21:42:24.713Z,72.89
2018-02-13T21:44:53.376Z,72.87
2018-02-13T21:47:20.836Z,72.77
2018-02-13T21:49:48.548Z,72.84
2018-02-13T21:52:15.991Z,73.31
2018-02-13T21:54:43.438Z,73.80
2018-02-13T21:57:10.933Z,73.67
2018-02-13T21:59:38.399Z,73.44
2018-02-13T22:02:06.005Z,72.13
2018-02-13T22:04:33.468Z,71.92
2018-02-13T22:07:00.913Z,72.15
2018-02-13T22:09:28.379Z,72.75
2018-02-13T22:11:55.820Z,72.60
2018-02-13T22:14:23.365Z,73.42
2018-02-13T22:16:50.816Z,72.37
2018-02-13T22:19:18.276Z,73.56
2018-02-13T22:21:45.732Z,72.64
2018-02-13T22:24:13.181Z,73.66
2018-02-13T22:26:40.807Z,72.72
2018-02-13T22:29:08.264Z,71.80
2018-02-13T22:31:35.704Z,73.23
2018-02-13T22:34:03.181Z,73.33
2018-02-13T22:36:30.625Z,74.28
2018-02-13T22:38:58.348Z,74.47
2018-02-13T22:41:25.792Z,74.86
2018-02-13T22:43:53.300Z,75.10
2018-02-13T22:46:20.833Z,74.95
2018-02-13T22:48:48.278Z,74.45
2018-02-13T22:51:16.176Z,75.29
2018-02-13T22:53:44.501Z,75.75
2018-02-13T22:56:11.960Z,76.64
2018-02-13T22:58:39.444Z,77.38
2018-02-13T23:01:06.909Z,77.57
2018-02-13T23:03:34.580Z,77.18
2018-02-13T23:06:02.037Z,77.03
2018-02-13T23:08:29.484Z,77.03
2018-02-13T23:10:56.948Z,76.70
2018-02-13T23:13:24.385Z,77.48
2018-02-13T23:15:51.861Z,77.28
2018-02-13T23:18:19.305Z,77.19
2018-02-13T23:20:46.744Z,77.15
2018-02-13T23:23:14.237Z,77.50
2018-02-13T23:25:41.676Z,77.85
2018-02-13T23:28:09.388Z,77.17
2018-02-13T23:30:36.828Z,76.99
2018-02-13T23:33:04.273Z,76.85
2018-02-13T23:35:31.741Z,77.36
2018-02-13T23:37:59.205Z,77.55
2018-02-13T23:40:26.681Z,78.32
2018-02-13T23:42:54.129Z,78.42
2018-02-13T23:45:21.580Z,78.64
2018-02-13T23:47:49.049Z,78.71
2018-02-13T23:50:16.493Z,78.69
2018-02-13T23:52:43.975Z,78.91
2018-02-13T23:55:11.445Z,79.44
2018-02-13T23:57:38.901Z,79.62
